createdAt,value
2022-11-23T00:04:54.695Z,98700
2022-11-23T00:10:44.995Z,98703
2022-11-23T00:16:36.635Z,98706
2022-11-23T00:22:27.642Z,98714
2022-11-23T00:28:22.592Z,98719
2022-11-23T00:34:25.947Z,98725
2022-11-23T00:40:23.271Z,98725
2022-11-23T00:46:16.527Z,98725
2022-11-23T00:52:12.445Z,98722
2022-11-23T00:58:03.071Z,98733
2022-11-23T01:04:04.195Z,98736
2022-11-23T01:10:09.364Z,98738
2022-11-23T01:16:07.827Z,98742
2022-11-23T01:22:01.767Z,98745
2022-11-23T01:28:04.400Z,98752
2022-11-23T01:33:56.224Z,98762
2022-11-23T01:39:48.669Z,98756
2022-11-23T01:45:53.433Z,98748
2022-11-23T01:51:48.058Z,98741
2022-11-23T01:57:40.868Z,98749
2022-11-23T02:03:39.796Z,98754
2022-11-23T02:09:30.169Z,98760
2022-11-23T02:15:35.248Z,98769
2022-11-23T02:21:25.173Z,98771
2022-11-23T02:33:23.062Z,98778
2022-11-23T02:39:15.182Z,98771
2022-11-23T02:45:13.529Z,98783
2022-11-23T02:51:10.698Z,98774
2022-11-23T02:57:04.264Z,98778
2022-11-23T03:03:09.487Z,98776
2022-11-23T03:09:03.491Z,98765
2022-11-23T03:15:06.549Z,98772
2022-11-23T03:21:02.254Z,98771
2022-11-23T03:26:53.654Z,98771
2022-11-23T03:32:59.821Z,98772
2022-11-23T03:39:03.511Z,98772
2022-11-23T03:51:33.847Z,98790
2022-11-23T03:57:25.415Z,98788
2022-11-23T04:03:18.464Z,98783
2022-11-23T04:09:15.124Z,98781
2022-11-23T04:15:06.717Z,98792
2022-11-23T04:21:10.490Z,98786
2022-11-23T04:27:09.021Z,98786
2022-11-23T04:33:15.763Z,98785
2022-11-23T04:45:20.514Z,98793
2022-11-23T04:51:26.038Z,98801
2022-11-23T04:57:17.383Z,98804
2022-11-23T05:03:08.441Z,98802
2022-11-23T05:09:01.532Z,98798
2022-11-23T05:14:55.164Z,98800
2022-11-23T05:20:49.708Z,98813
2022-11-23T05:26:41.497Z,98820
2022-11-23T05:32:49.635Z,98815
2022-11-23T05:38:47.416Z,98817
2022-11-23T05:44:49.706Z,98828
2022-11-23T05:50:51.492Z,98832
2022-11-23T05:56:44.285Z,98831
2022-11-23T06:02:51.225Z,98832
2022-11-23T06:14:58.957Z,98832
2022-11-23T06:21:31.559Z,98832
2022-11-23T06:27:30.416Z,98835
2022-11-23T06:33:38.547Z,98834
2022-11-23T06:39:38.841Z,98838
2022-11-23T06:45:49.409Z,98835
2022-11-23T06:51:55.640Z,98840
2022-11-23T06:58:23.844Z,98845
2022-11-23T07:04:32.859Z,98854
2022-11-23T07:17:28.527Z,98856
2022-11-23T07:23:33.343Z,98852
2022-11-23T07:29:47.649Z,98860
2022-11-23T07:35:42.914Z,98863
2022-11-23T07:41:37.777Z,98876
2022-11-23T07:54:25.900Z,98880
2022-11-23T08:00:21.752Z,98887
2022-11-23T08:06:38.257Z,98892
2022-11-23T08:12:54.909Z,98889
2022-11-23T08:19:00.465Z,98892
2022-11-23T08:25:03.572Z,98896
2022-11-23T08:30:56.020Z,98890
2022-11-23T08:37:22.764Z,98894
2022-11-23T08:43:27.380Z,98888
2022-11-23T08:49:32.495Z,98894
2022-11-23T08:55:35.423Z,98889
2022-11-23T09:01:35.823Z,98895
2022-11-23T09:07:33.798Z,98892
2022-11-23T09:13:31.858Z,98890
2022-11-23T09:19:36.280Z,98884
2022-11-23T09:25:27.549Z,98895
2022-11-23T09:31:35.611Z,98892
2022-11-23T09:37:25.724Z,98891
2022-11-23T09:43:29.723Z,98896
2022-11-23T09:49:20.384Z,98898
2022-11-23T09:55:19.535Z,98902
2022-11-23T10:01:10.831Z,98904
2022-11-23T10:07:03.771Z,98909
2022-11-23T10:12:55.598Z,98897
2022-11-23T10:18:49.751Z,98884
2022-11-23T10:24:46.604Z,98886
2022-11-23T10:30:39.547Z,98880
2022-11-23T10:42:28.059Z,98864
2022-11-23T10:54:34.584Z,98840
2022-11-23T11:00:36.823Z,98836
2022-11-23T11:06:30.632Z,98820
2022-11-23T11:12:32.731Z,98812
2022-11-23T11:18:35.276Z,98813
2022-11-23T11:24:48.172Z,98805
2022-11-23T11:36:47.910Z,98806
2022-11-23T11:42:54.248Z,98798
2022-11-23T11:49:03.257Z,98792
2022-11-23T11:55:08.410Z,98787
2022-11-23T12:01:01.724Z,98777
2022-11-23T12:06:56.164Z,98786
2022-11-23T12:12:50.417Z,98778
2022-11-23T12:18:41.650Z,98789
2022-11-23T12:30:27.350Z,98771
2022-11-23T12:36:25.696Z,98757
2022-11-23T12:42:38.481Z,98761
2022-11-23T12:48:52.909Z,98770
2022-11-23T13:00:49.372Z,98730
2022-11-23T13:07:37.476Z,98718
2022-11-23T13:26:31.922Z,98689
2022-11-23T13:32:22.712Z,98676
2022-11-23T13:38:15.606Z,98688
2022-11-23T13:44:23.480Z,98683
2022-11-23T13:50:14.511Z,98673
2022-11-23T13:56:16.039Z,98671
2022-11-23T14:02:25.408Z,98666
2022-11-23T14:08:33.039Z,98664
2022-11-23T14:14:37.534Z,98670
2022-11-23T14:26:48.323Z,98667
2022-11-23T14:33:14.275Z,98649
2022-11-23T14:39:05.104Z,98644
2022-11-23T14:53:05.425Z,98636
2022-11-23T15:12:50.122Z,98686
2022-11-23T15:25:43.500Z,98691
2022-11-23T15:32:40.053Z,98689
2022-11-23T16:05:27.377Z,98791
2022-11-23T16:11:54.292Z,98814
2022-11-23T16:17:57.432Z,98823
2022-11-23T16:23:59.509Z,98826
2022-11-23T16:29:49.426Z,98824
2022-11-23T16:35:39.288Z,98846
2022-11-23T16:41:29.024Z,98857
2022-11-23T16:47:20.437Z,98877
2022-11-23T16:53:12.828Z,98884
2022-11-23T16:59:03.883Z,98891
2022-11-23T17:05:01.091Z,98894
2022-11-23T17:10:52.584Z,98909
2022-11-23T17:16:41.194Z,98916
2022-11-23T17:22:31.255Z,98921
2022-11-23T17:28:21.183Z,98926
2022-11-23T17:34:09.485Z,98934
2022-11-23T17:40:00.129Z,98941
2022-11-23T17:45:50.833Z,98948
2022-11-23T17:51:42.060Z,98962
2022-11-23T17:57:32.700Z,98984
2022-11-23T18:03:23.508Z,98989
2022-11-23T18:09:15.416Z,98980
2022-11-23T18:15:06.170Z,98989
2022-11-23T18:20:56.791Z,98999
2022-11-23T18:26:47.237Z,99003
2022-11-23T18:32:37.683Z,99022
2022-11-23T18:38:28.130Z,99033
2022-11-23T18:44:18.394Z,99042
2022-11-23T18:50:10.488Z,99040
2022-11-23T18:56:05.429Z,99048
2022-11-23T19:01:55.657Z,99070
2022-11-23T19:07:47.163Z,99075
2022-11-23T19:13:38.096Z,99074
2022-11-23T19:19:28.660Z,99084
2022-11-23T19:25:20.526Z,99095
2022-11-23T19:31:10.729Z,99101
2022-11-23T19:37:02.881Z,99109
2022-11-23T19:42:53.191Z,99117
2022-11-23T19:48:43.868Z,99120
2022-11-23T19:54:34.694Z,99133
2022-11-23T20:00:25.132Z,99139
2022-11-23T20:06:16.703Z,99146
2022-11-23T20:12:07.437Z,99158
2022-11-23T20:17:58.519Z,99169
2022-11-23T20:23:48.660Z,99178
2022-11-23T20:29:39.781Z,99172
2022-11-23T20:35:30.633Z,99190
2022-11-23T20:41:20.934Z,99195
2022-11-23T20:47:11.616Z,99200
2022-11-23T20:53:03.001Z,99205
2022-11-23T20:58:56.232Z,99215
2022-11-23T21:04:45.995Z,99218
2022-11-23T21:10:34.922Z,99222
2022-11-23T21:16:25.843Z,99229
2022-11-23T21:22:16.462Z,99241
2022-11-23T21:28:07.116Z,99250
2022-11-23T21:33:58.598Z,99261
2022-11-23T21:39:56.501Z,99271
2022-11-23T21:45:46.902Z,99276
2022-11-23T21:51:37.286Z,99278
2022-11-23T21:57:28.168Z,99292
2022-11-23T22:03:17.515Z,99297
2022-11-23T22:09:08.077Z,99299
2022-11-23T22:14:59.404Z,99318
2022-11-23T22:20:49.522Z,99326
2022-11-23T22:26:44.140Z,99329
2022-11-23T22:32:33.370Z,99340
2022-11-23T22:38:24.328Z,99345
2022-11-23T22:44:20.805Z,99346
2022-11-23T22:50:11.458Z,99356
2022-11-23T22:56:01.676Z,99365
2022-11-23T23:01:53.073Z,99369
2022-11-23T23:07:59.157Z,99368
2022-11-23T23:13:50.540Z,99375
2022-11-23T23:19:46.169Z,99382
2022-11-23T23:25:40.711Z,99390
2022-11-23T23:31:34.957Z,99393
2022-11-23T23:37:25.746Z,99396
2022-11-23T23:43:17.126Z,99408
2022-11-23T23:49:07.170Z,99418
2022-11-23T23:54:57.678Z,99422
